Time;durP1;ratioP1;P1;durP2;ratioP2;P2;SDS_P1;SDS_P2;PMS_P1;PMS_P2;Temp;Humidity;BMP_temperature;BMP_pressure;BME280_temperature;BME280_humidity;BME280_pressure;Samples;Min_cycle;Max_cycle;Signal;HPM_P1;HPM_P2
2021/06/11 00:00:26;;;;;;;11.57;2.85;;;17.60;99.90;;;;;;5052783;28;20058;-71
2021/06/11 00:02:51;;;;;;;6.85;2.90;;;17.50;99.90;;;;;;5051929;28;20037;-72
2021/06/11 00:05:17;;;;;;;5.18;2.53;;;17.50;99.90;;;;;;5063851;28;20513;-72
2021/06/11 00:07:43;;;;;;;5.20;2.88;;;17.60;99.90;;;;;;5053814;28;20032;-72
2021/06/11 00:10:12;;;;;;;5.82;3.28;;;17.50;99.90;;;;;;5061316;28;20469;-71
2021/06/11 00:12:38;;;;;;;5.40;3.13;;;17.50;99.90;;;;;;5055093;28;20035;-72
2021/06/11 00:15:06;;;;;;;6.18;3.58;;;17.50;99.90;;;;;;5051437;28;20064;-71
2021/06/11 00:17:32;;;;;;;7.45;4.57;;;17.60;99.90;;;;;;5045993;28;20064;-72
2021/06/11 00:19:58;;;;;;;8.38;4.38;;;17.60;99.90;;;;;;5054366;28;20036;-72
2021/06/11 00:22:24;;;;;;;10.30;4.90;;;17.50;99.90;;;;;;5053457;28;20040;-72
2021/06/11 00:24:49;;;;;;;9.20;4.45;;;17.50;99.90;;;;;;5054137;28;20102;-71
2021/06/11 00:27:15;;;;;;;9.30;3.65;;;17.50;99.90;;;;;;5059606;28;20508;-72
2021/06/11 00:29:41;;;;;;;8.60;3.35;;;17.50;99.90;;;;;;5049828;28;20083;-72
2021/06/11 00:32:07;;;;;;;8.07;3.95;;;17.40;99.90;;;;;;5057016;28;20035;-72
2021/06/11 00:34:33;;;;;;;8.48;4.20;;;17.40;99.90;;;;;;5050219;28;20386;-72
2021/06/11 00:36:58;;;;;;;8.30;3.45;;;17.30;99.90;;;;;;5037666;28;20044;-72
2021/06/11 00:39:24;;;;;;;5.78;3.13;;;17.30;99.90;;;;;;5053927;28;20056;-72
2021/06/11 00:41:50;;;;;;;6.00;3.67;;;17.20;99.90;;;;;;5048424;28;20037;-72
2021/06/11 00:44:15;;;;;;;6.10;3.22;;;17.20;99.90;;;;;;5050998;28;20037;-72
2021/06/11 00:46:41;;;;;;;4.25;2.95;;;17.30;99.90;;;;;;5051454;28;20029;-71
2021/06/11 00:49:07;;;;;;;7.47;3.22;;;17.20;99.90;;;;;;5046363;28;20039;-72
2021/06/11 00:51:32;;;;;;;6.13;3.35;;;17.20;99.90;;;;;;5052773;28;20055;-72
2021/06/11 00:53:58;;;;;;;7.03;3.63;;;17.30;99.90;;;;;;5054943;28;20047;-72
2021/06/11 00:56:24;;;;;;;8.00;5.13;;;17.20;99.90;;;;;;5052666;28;20032;-72
2021/06/11 00:58:50;;;;;;;8.43;5.60;;;17.20;99.90;;;;;;5037966;28;20043;-72
2021/06/11 01:01:16;;;;;;;7.40;4.75;;;17.20;99.90;;;;;;5052112;28;20517;-71
2021/06/11 01:03:41;;;;;;;6.97;3.95;;;17.20;99.90;;;;;;5048363;28;20147;-71
2021/06/11 01:06:07;;;;;;;9.57;4.30;;;17.20;99.90;;;;;;5051124;28;20099;-71
2021/06/11 01:08:33;;;;;;;9.45;4.13;;;17.10;99.90;;;;;;5060071;28;20036;-72
2021/06/11 01:10:59;;;;;;;7.75;3.50;;;17.10;99.90;;;;;;5054741;28;20039;-71
2021/06/11 01:13:26;;;;;;;4.82;3.00;;;17.00;99.90;;;;;;5052193;28;20352;-72
2021/06/11 01:15:52;;;;;;;8.65;4.10;;;17.00;99.90;;;;;;5054487;28;20041;-72
2021/06/11 01:18:19;;;;;;;6.50;3.65;;;17.00;99.90;;;;;;5046407;28;20060;-72
2021/06/11 01:20:45;;;;;;;6.70;4.47;;;17.00;99.90;;;;;;5047663;28;20045;-71
2021/06/11 01:23:28;;;;;;;10.02;4.35;;;17.00;99.90;;;;;;5043725;28;20376;-71
2021/06/11 01:25:56;;;;;;;;;;;16.90;99.90;;;;;;5051483;28;20037;-72
2021/06/11 01:28:25;;;;;;;7.60;4.28;;;16.80;99.90;;;;;;5059254;28;19974;-72
2021/06/11 01:30:53;;;;;;;8.15;3.60;;;16.70;99.90;;;;;;5055453;28;20393;-71
2021/06/11 01:33:21;;;;;;;7.25;4.18;;;16.70;99.90;;;;;;5045860;28;20057;-72
2021/06/11 01:35:52;;;;;;;11.82;10.07;;;16.60;99.90;;;;;;5047925;28;20490;-71
2021/06/11 01:38:21;;;;;;;10.48;7.43;;;16.60;99.90;;;;;;5052480;28;20069;-72
2021/06/11 01:40:47;;;;;;;8.02;6.32;;;16.60;99.90;;;;;;5053415;28;20037;-71
2021/06/11 01:43:17;;;;;;;6.78;4.47;;;16.60;99.90;;;;;;5052352;28;20028;-72
2021/06/11 01:45:43;;;;;;;8.00;5.05;;;16.70;99.90;;;;;;5053442;28;20472;-72
2021/06/11 01:48:09;;;;;;;7.20;4.75;;;16.70;99.90;;;;;;5052659;28;20100;-72
2021/06/11 01:50:35;;;;;;;7.45;4.50;;;16.70;99.90;;;;;;5058934;28;20059;-72
2021/06/11 01:53:03;;;;;;;9.63;4.97;;;16.60;99.90;;;;;;5050777;28;20029;-72
2021/06/11 01:55:30;;;;;;;9.60;4.13;;;16.50;99.90;;;;;;5058850;28;20531;-72
2021/06/11 01:57:58;;;;;;;8.00;4.47;;;16.50;99.90;;;;;;5050921;28;20017;-72
2021/06/11 02:00:25;;;;;;;7.53;3.97;;;16.40;99.90;;;;;;5058487;28;20075;-72
2021/06/11 02:02:52;;;;;;;6.28;3.80;;;16.40;99.90;;;;;;5051014;28;20025;-72
2021/06/11 02:05:18;;;;;;;10.40;5.00;;;16.40;99.90;;;;;;5058109;28;20036;-72
2021/06/11 02:07:46;;;;;;;13.65;5.70;;;16.30;99.90;;;;;;5035068;28;20025;-71
2021/06/11 02:10:14;;;;;;;8.13;4.78;;;16.40;99.90;;;;;;5061356;28;20402;-72
2021/06/11 02:12:40;;;;;;;10.20;5.25;;;16.40;99.90;;;;;;5055224;28;20111;-73
2021/06/11 02:15:08;;;;;;;9.05;4.45;;;16.30;99.90;;;;;;5042791;28;20489;-72
2021/06/11 02:17:40;;;;;;;7.00;4.20;;;16.20;99.90;;;;;;5054242;28;20029;-72
2021/06/11 02:20:10;;;;;;;7.43;4.47;;;16.20;99.90;;;;;;5060319;28;20047;-71
2021/06/11 02:22:38;;;;;;;6.40;3.97;;;16.20;99.90;;;;;;5052286;28;20115;-73
2021/06/11 02:25:05;;;;;;;7.15;4.18;;;16.20;99.90;;;;;;5059074;28;20376;-72
2021/06/11 02:27:33;;;;;;;8.88;4.63;;;16.20;99.90;;;;;;5057902;28;20059;-71
2021/06/11 02:29:59;;;;;;;9.25;4.25;;;16.20;99.90;;;;;;5052315;28;20033;-72
2021/06/11 02:32:26;;;;;;;8.27;4.55;;;16.30;99.90;;;;;;5048304;28;20384;-72
2021/06/11 02:34:52;;;;;;;6.53;4.25;;;16.20;99.90;;;;;;5056205;28;20496;-72
2021/06/11 02:37:18;;;;;;;7.65;4.20;;;16.10;99.90;;;;;;5057282;28;20439;-72
2021/06/11 02:39:44;;;;;;;9.82;5.00;;;16.20;99.90;;;;;;5038209;28;20064;-72
2021/06/11 02:42:11;;;;;;;7.70;4.90;;;16.20;99.90;;;;;;5038093;28;20033;-72
2021/06/11 02:44:41;;;;;;;7.18;4.85;;;16.20;99.90;;;;;;5038649;28;20064;-72
2021/06/11 02:47:18;;;;;;;11.70;4.28;;;16.20;99.90;;;;;;5056986;28;20058;-71
2021/06/11 02:49:54;;;;;;;6.85;4.40;;;16.20;99.90;;;;;;5053721;28;20481;-71
2021/06/11 02:52:22;;;;;;;7.75;4.50;;;16.10;99.90;;;;;;5060924;28;20119;-72
2021/06/11 02:54:52;;;;;;;6.78;4.45;;;16.10;99.90;;;;;;5053346;28;20128;-72
2021/06/11 02:57:37;;;;;;;6.70;4.28;;;16.00;99.90;;;;;;5060623;28;20024;-72
2021/06/11 03:00:07;;;;;;;10.15;4.53;;;16.00;99.90;;;;;;5053295;28;20045;-72
2021/06/11 03:02:44;;;;;;;8.23;5.15;;;16.00;99.90;;;;;;5060578;28;20039;-72
2021/06/11 03:05:11;;;;;;;8.43;4.20;;;15.90;99.90;;;;;;5052536;28;20061;-72
2021/06/11 03:07:39;;;;;;;9.38;4.57;;;15.90;99.90;;;;;;5060411;28;20033;-72
2021/06/11 03:10:07;;;;;;;9.57;4.35;;;16.00;99.90;;;;;;5053059;28;20124;-72
2021/06/11 03:12:35;;;;;;;10.70;4.18;;;16.00;99.90;;;;;;5050574;28;20044;-72
2021/06/11 03:15:00;;;;;;;8.15;4.60;;;16.00;99.90;;;;;;5052278;28;20481;-72
2021/06/11 03:17:42;;;;;;;7.43;5.15;;;15.90;99.90;;;;;;5062236;28;20032;-71
2021/06/11 03:20:13;;;;;;;8.60;5.27;;;15.80;99.90;;;;;;5056075;28;20067;-71
2021/06/11 03:22:49;;;;;;;7.22;4.50;;;15.70;99.90;;;;;;5035673;28;20032;-72
2021/06/11 03:25:33;;;;;;;7.82;5.10;;;15.70;99.90;;;;;;5064722;28;20060;-72
2021/06/11 03:28:06;;;;;;;6.95;5.43;;;15.70;99.90;;;;;;5047416;28;20037;-72
2021/06/11 03:30:33;;;;;;;9.38;4.50;;;15.70;99.90;;;;;;5053795;28;20410;-71
2021/06/11 03:33:10;;;;;;;8.70;4.03;;;15.70;99.90;;;;;;5048775;28;20033;-71
2021/06/11 03:35:42;;;;;;;5.82;3.55;;;15.60;99.90;;;;;;5052818;28;20446;-72
2021/06/11 03:38:10;;;;;;;10.45;3.53;;;15.70;99.90;;;;;;5059726;28;20055;-71
2021/06/11 03:40:40;;;;;;;10.93;5.28;;;15.70;99.90;;;;;;5053329;28;20051;-71
2021/06/11 03:43:08;;;;;;;7.95;4.88;;;15.70;99.90;;;;;;5059057;28;20034;-72
2021/06/11 03:45:35;;;;;;;8.35;4.25;;;15.70;99.90;;;;;;5052703;28;20044;-72
2021/06/11 03:48:03;;;;;;;9.38;4.18;;;15.70;99.90;;;;;;5056869;28;20099;-71
2021/06/11 03:50:29;;;;;;;9.15;4.63;;;15.70;99.90;;;;;;5056096;28;20057;-72
2021/06/11 03:52:59;;;;;;;7.05;4.22;;;15.70;99.90;;;;;;5050934;28;20033;-72
2021/06/11 03:55:27;;;;;;;5.72;4.28;;;15.70;99.90;;;;;;5052975;28;20485;-72
2021/06/11 03:58:04;;;;;;;9.10;4.20;;;15.70;99.90;;;;;;5052603;28;20029;-72
2021/06/11 04:00:31;;;;;;;10.52;4.53;;;15.60;99.90;;;;;;5056459;28;20333;-72
2021/06/11 04:02:58;;;;;;;8.52;5.40;;;15.70;99.90;;;;;;5053491;28;20458;-72
2021/06/11 04:05:24;;;;;;;10.00;4.90;;;15.80;99.90;;;;;;5051189;28;20120;-72
2021/06/11 04:07:55;;;;;;;7.90;4.63;;;15.80;99.90;;;;;;5051191;28;20033;-72
2021/06/11 04:10:39;;;;;;;7.32;5.07;;;15.80;99.90;;;;;;5059087;28;20111;-71
2021/06/11 04:13:17;;;;;;;10.48;5.18;;;15.70;99.90;;;;;;5048742;28;20028;-72
2021/06/11 04:15:47;;;;;;;9.13;6.70;;;15.70;99.90;;;;;;5043597;28;20037;-71
2021/06/11 04:18:15;;;;;;;8.68;6.15;;;15.70;99.90;;;;;;5051196;28;20032;-72
2021/06/11 04:20:44;;;;;;;9.13;6.53;;;15.80;99.90;;;;;;5048734;28;20037;-72
2021/06/11 04:23:11;;;;;;;12.23;6.60;;;15.70;99.90;;;;;;5050118;28;20044;-72
2021/06/11 04:25:39;;;;;;;9.40;5.40;;;15.70;99.90;;;;;;5054666;28;20047;-72
2021/06/11 04:28:09;;;;;;;7.50;5.03;;;15.70;99.90;;;;;;5055750;28;20095;-72
2021/06/11 04:30:34;;;;;;;13.52;5.82;;;15.70;99.90;;;;;;5052343;28;20040;-72
2021/06/11 04:33:00;;;;;;;16.45;8.25;;;15.80;99.90;;;;;;5052993;28;20427;-72
2021/06/11 04:35:35;;;;;;;14.20;7.72;;;15.70;99.90;;;;;;5051879;28;20380;-72
2021/06/11 04:38:00;;;;;;;8.95;6.88;;;15.70;99.90;;;;;;5054845;28;20453;-72
2021/06/11 04:40:26;;;;;;;9.38;6.00;;;15.70;99.90;;;;;;5051447;28;20028;-72
2021/06/11 04:42:52;;;;;;;9.93;5.72;;;15.70;99.90;;;;;;5056349;28;20029;-71
2021/06/11 04:45:18;;;;;;;10.43;5.63;;;15.70;99.90;;;;;;5042022;28;20099;-71
2021/06/11 04:47:43;;;;;;;13.13;5.60;;;15.80;99.90;;;;;;5056276;28;20382;-72
2021/06/11 04:50:09;;;;;;;8.68;4.80;;;16.00;99.90;;;;;;5059199;28;20464;-72
2021/06/11 04:52:35;;;;;;;11.10;4.63;;;16.30;99.90;;;;;;5058601;28;20564;-72
2021/06/11 04:55:00;;;;;;;8.73;4.78;;;16.60;99.90;;;;;;5054085;28;20381;-72
2021/06/11 04:57:26;;;;;;;9.57;4.72;;;17.00;99.90;;;;;;5058419;28;20112;-72
2021/06/11 04:59:52;;;;;;;9.00;5.05;;;17.30;99.90;;;;;;5054138;28;20074;-71
2021/06/11 05:02:17;;;;;;;9.32;5.32;;;17.50;99.90;;;;;;5059353;28;20546;-72
2021/06/11 05:04:43;;;;;;;10.32;6.32;;;17.80;99.90;;;;;;5057097;28;20439;-71
2021/06/11 05:07:08;;;;;;;11.30;7.30;;;17.90;99.90;;;;;;5050174;28;20085;-72
2021/06/11 05:09:34;;;;;;;9.27;7.03;;;18.10;99.90;;;;;;5033083;28;20064;-72
2021/06/11 05:12:00;;;;;;;11.32;8.27;;;18.40;99.90;;;;;;5052813;28;20025;-72
2021/06/11 05:14:26;;;;;;;9.45;7.18;;;18.50;99.90;;;;;;5056362;28;20062;-72
2021/06/11 05:16:52;;;;;;;10.70;5.32;;;18.70;99.90;;;;;;5043877;28;20374;-72
2021/06/11 05:19:17;;;;;;;9.10;4.22;;;18.80;99.90;;;;;;5042925;28;20032;-71
2021/06/11 05:21:44;;;;;;;5.65;3.70;;;18.70;99.90;;;;;;5061616;28;20496;-72
2021/06/11 05:24:09;;;;;;;5.18;3.67;;;19.00;99.90;;;;;;5044991;28;20632;-72
2021/06/11 05:26:35;;;;;;;4.28;2.80;;;18.90;99.90;;;;;;5057941;28;20060;-71
2021/06/11 05:29:01;;;;;;;8.93;3.83;;;18.60;99.90;;;;;;5058355;28;20738;-72
2021/06/11 05:31:26;;;;;;;7.57;3.65;;;18.60;99.90;;;;;;5053374;28;20055;-72
2021/06/11 05:33:52;;;;;;;6.10;3.47;;;18.80;99.90;;;;;;5058135;28;20037;-72
2021/06/11 05:36:17;;;;;;;7.78;3.53;;;18.70;99.90;;;;;;5060420;28;20256;-72
2021/06/11 05:38:43;;;;;;;7.25;3.58;;;18.70;99.90;;;;;;5056743;28;20033;-72
2021/06/11 05:41:09;;;;;;;8.10;4.00;;;18.90;99.90;;;;;;5048309;28;20033;-73
2021/06/11 05:43:34;;;;;;;8.10;4.90;;;18.90;99.90;;;;;;5045230;28;20099;-72
2021/06/11 05:46:00;;;;;;;9.73;6.22;;;19.30;99.90;;;;;;5064712;28;20074;-72
2021/06/11 05:48:26;;;;;;;9.52;4.95;;;19.70;99.90;;;;;;5051630;28;20619;-72
2021/06/11 05:50:51;;;;;;;6.93;3.42;;;19.70;99.90;;;;;;5055929;28;20037;-72
2021/06/11 05:53:22;;;;;;;5.07;3.13;;;19.80;99.90;;;;;;5037752;28;20036;-72
2021/06/11 05:55:49;;;;;;;7.93;3.80;;;19.80;99.90;;;;;;5062736;28;20032;-72
2021/06/11 05:58:15;;;;;;;6.32;3.60;;;20.00;99.90;;;;;;5057135;28;20114;-72
2021/06/11 06:00:40;;;;;;;7.53;3.35;;;20.20;99.90;;;;;;5056773;28;20040;-72
2021/06/11 06:03:06;;;;;;;9.32;3.50;;;20.50;99.90;;;;;;5056649;28;20055;-72
2021/06/11 06:05:32;;;;;;;5.85;2.83;;;20.50;99.90;;;;;;5037898;28;20041;-72
2021/06/11 06:07:57;;;;;;;5.28;3.05;;;20.70;99.90;;;;;;5058763;28;20441;-72
2021/06/11 06:10:23;;;;;;;6.97;3.35;;;20.30;99.90;;;;;;5055569;28;20497;-72
2021/06/11 06:12:49;;;;;;;5.97;3.05;;;19.90;99.90;;;;;;5037996;28;20056;-72
2021/06/11 06:15:15;;;;;;;6.78;3.30;;;20.40;99.90;;;;;;5054462;28;20045;-72
2021/06/11 06:17:40;;;;;;;6.00;3.40;;;20.50;99.90;;;;;;5053507;28;20494;-72
2021/06/11 06:20:08;;;;;;;8.32;3.88;;;20.30;99.90;;;;;;5051923;28;20044;-72
2021/06/11 06:22:34;;;;;;;7.10;3.60;;;20.40;99.90;;;;;;5056672;28;20033;-72
2021/06/11 06:25:00;;;;;;;6.97;3.22;;;20.70;99.90;;;;;;5056858;28;20045;-73
2021/06/11 06:27:26;;;;;;;5.53;3.08;;;21.20;99.90;;;;;;5056412;28;20525;-73
2021/06/11 06:29:51;;;;;;;4.30;2.85;;;21.40;99.90;;;;;;5056148;28;20120;-72
2021/06/11 06:32:17;;;;;;;6.93;3.72;;;21.70;99.90;;;;;;5043846;28;20482;-72
2021/06/11 06:34:43;;;;;;;7.15;2.92;;;21.60;99.90;;;;;;5049686;28;20469;-72
2021/06/11 06:37:10;;;;;;;8.35;3.25;;;21.80;99.90;;;;;;5052434;28;20036;-72
2021/06/11 06:39:37;;;;;;;8.38;2.90;;;21.60;99.90;;;;;;5054717;28;20061;-72
2021/06/11 06:42:05;;;;;;;6.05;3.50;;;21.80;99.90;;;;;;5035672;28;20106;-72
2021/06/11 06:44:30;;;;;;;5.18;3.22;;;21.30;99.90;;;;;;5040772;28;20028;-73
2021/06/11 06:46:56;;;;;;;6.60;3.55;;;21.80;99.90;;;;;;5035294;28;20033;-72
2021/06/11 06:49:22;;;;;;;11.00;3.67;;;22.00;99.90;;;;;;5050486;28;20063;-73
2021/06/11 06:51:47;;;;;;;6.60;3.90;;;22.20;99.90;;;;;;5051669;28;20168;-73
2021/06/11 06:54:13;;;;;;;8.25;3.53;;;22.50;99.90;;;;;;5055942;28;20074;-72
2021/06/11 06:56:39;;;;;;;6.88;3.17;;;22.80;99.90;;;;;;5053003;28;20116;-73
2021/06/11 06:59:05;;;;;;;9.75;3.40;;;22.70;99.90;;;;;;5054664;28;20033;-72
2021/06/11 07:01:30;;;;;;;7.70;3.20;;;22.50;99.90;;;;;;5052974;28;20037;-72
2021/06/11 07:04:01;;;;;;;8.13;3.22;;;22.70;99.90;;;;;;5050902;28;20147;-72
2021/06/11 07:06:27;;;;;;;8.27;4.28;;;22.90;99.90;;;;;;5054817;28;20055;-72
2021/06/11 07:08:54;;;;;;;9.25;3.72;;;22.90;99.90;;;;;;5051853;28;20040;-72
2021/06/11 07:11:20;;;;;;;7.63;3.55;;;22.80;99.90;;;;;;5057191;28;20036;-72
2021/06/11 07:13:47;;;;;;;6.05;3.42;;;22.80;99.90;;;;;;5052021;28;20114;-72
2021/06/11 07:16:13;;;;;;;7.75;3.40;;;22.50;99.90;;;;;;5054815;28;20151;-73
2021/06/11 07:18:39;;;;;;;6.60;3.50;;;22.80;99.90;;;;;;5038422;28;20025;-72
2021/06/11 07:21:06;;;;;;;6.45;3.40;;;22.50;99.90;;;;;;5051812;28;20029;-72
2021/06/11 07:23:33;;;;;;;6.22;3.40;;;22.50;99.90;;;;;;5050188;28;20035;-72
2021/06/11 07:26:06;;;;;;;6.53;2.88;;;22.50;99.90;;;;;;5056052;28;20036;-72
2021/06/11 07:28:33;;;;;;;6.05;3.45;;;22.00;99.90;;;;;;5033090;28;20097;-73
2021/06/11 07:30:59;;;;;;;7.45;3.58;;;22.20;99.90;;;;;;5053657;28;20490;-72
2021/06/11 07:33:25;;;;;;;7.10;3.08;;;22.20;99.90;;;;;;5052503;28;20029;-72
2021/06/11 07:35:50;;;;;;;4.80;3.20;;;21.90;99.90;;;;;;5052224;28;20057;-72
2021/06/11 07:38:16;;;;;;;8.50;3.55;;;21.80;99.90;;;;;;5054001;28;20374;-72
2021/06/11 07:40:42;;;;;;;5.90;3.22;;;22.30;99.90;;;;;;5035345;28;20041;-72
2021/06/11 07:43:07;;;;;;;4.95;3.25;;;22.50;99.90;;;;;;5054309;28;20032;-72
2021/06/11 07:45:33;;;;;;;8.75;3.83;;;22.50;99.90;;;;;;5055312;28;20033;-72
2021/06/11 07:47:59;;;;;;;5.28;2.80;;;22.50;99.90;;;;;;5050669;28;20554;-72
2021/06/11 07:50:25;;;;;;;5.22;3.33;;;22.90;99.90;;;;;;5056775;28;20424;-72
2021/06/11 07:52:51;;;;;;;9.02;3.38;;;22.90;99.90;;;;;;5033515;28;20469;-72
2021/06/11 07:55:17;;;;;;;5.35;3.00;;;22.90;99.90;;;;;;5042604;28;20036;-73
2021/06/11 07:57:42;;;;;;;13.73;9.60;;;23.30;99.90;;;;;;5054704;28;20037;-72
2021/06/11 08:00:09;;;;;;;7.18;4.00;;;24.00;99.90;;;;;;5039054;28;20055;-73
2021/06/11 08:02:35;;;;;;;10.63;3.33;;;24.30;99.90;;;;;;5051215;28;20028;-72
2021/06/11 08:05:00;;;;;;;5.72;2.92;;;24.20;99.90;;;;;;5050726;28;20037;-72
2021/06/11 08:07:30;;;;;;;4.30;2.95;;;24.60;99.90;;;;;;5052610;28;20099;-73
2021/06/11 08:09:59;;;;;;;5.40;3.42;;;25.00;99.90;;;;;;5049630;28;20045;-73
2021/06/11 08:12:33;;;;;;;5.03;2.70;;;25.60;99.90;;;;;;5048966;28;20037;-73
2021/06/11 08:14:59;;;;;;;6.45;3.25;;;26.20;99.80;;;;;;5051809;28;20044;-73
2021/06/11 08:17:25;;;;;;;7.90;3.13;;;25.50;98.80;;;;;;5050819;28;20400;-73
2021/06/11 08:19:51;;;;;;;6.57;3.17;;;25.20;98.80;;;;;;5055364;28;20032;-73
2021/06/11 08:22:17;;;;;;;5.72;3.20;;;25.50;99.10;;;;;;5039454;28;20364;-73
2021/06/11 08:24:43;;;;;;;8.40;4.20;;;26.20;98.50;;;;;;5052710;28;20036;-73
2021/06/11 08:27:09;;;;;;;7.60;3.45;;;26.00;98.50;;;;;;5057993;28;20385;-72
2021/06/11 08:29:34;;;;;;;5.00;3.15;;;26.40;96.80;;;;;;5049175;28;20438;-73
2021/06/11 08:32:00;;;;;;;7.65;3.40;;;26.30;98.80;;;;;;5053506;28;20150;-73
2021/06/11 08:34:28;;;;;;;8.65;3.95;;;26.20;97.00;;;;;;5049162;28;20067;-73
2021/06/11 08:36:54;;;;;;;8.52;3.10;;;26.80;96.80;;;;;;5052777;28;20314;-73
2021/06/11 08:39:19;;;;;;;5.97;3.58;;;26.90;95.80;;;;;;5049844;28;20606;-73
2021/06/11 08:41:45;;;;;;;9.63;4.10;;;26.60;95.80;;;;;;5051877;28;20136;-73
2021/06/11 08:44:13;;;;;;;6.75;4.13;;;26.50;97.00;;;;;;5051287;28;20382;-73
2021/06/11 08:46:39;;;;;;;8.82;3.97;;;25.60;97.30;;;;;;5053003;28;20037;-73
2021/06/11 08:49:05;;;;;;;8.05;3.70;;;25.30;97.70;;;;;;5051061;28;20028;-73
2021/06/11 08:51:32;;;;;;;10.13;3.53;;;24.90;98.80;;;;;;5052868;28;20375;-73
2021/06/11 08:53:57;;;;;;;9.38;4.20;;;24.90;98.40;;;;;;5052125;28;20557;-73
2021/06/11 08:56:23;;;;;;;7.60;3.60;;;25.80;98.40;;;;;;5053239;28;20556;-73
2021/06/11 08:58:50;;;;;;;6.55;4.18;;;26.30;96.70;;;;;;5049561;28;20037;-73
2021/06/11 09:01:16;;;;;;;13.73;3.88;;;26.00;98.00;;;;;;5057174;28;20105;-73
2021/06/11 09:03:47;;;;;;;8.13;4.20;;;25.50;97.90;;;;;;5046679;28;20112;-73
2021/06/11 09:06:14;;;;;;;;;;;25.30;97.20;;;;;;5055821;28;20028;-73
2021/06/11 09:08:48;;;;;;;9.88;3.30;;;25.20;97.80;;;;;;5052264;28;20140;-73
2021/06/11 09:11:20;;;;;;;9.20;3.85;;;26.40;97.60;;;;;;5051642;28;20036;-73
2021/06/11 09:13:54;;;;;;;6.30;3.88;;;27.20;97.00;;;;;;5052712;28;20086;-73
2021/06/11 09:16:23;;;;;;;8.25;4.13;;;26.50;96.90;;;;;;5053509;28;20044;-73
2021/06/11 09:18:51;;;;;;;10.55;4.13;;;26.70;96.80;;;;;;5049684;28;20043;-73
2021/06/11 09:21:45;;;;;;;5.65;3.67;;;26.70;98.10;;;;;;5050340;28;20481;-73
2021/06/11 09:24:28;;;;;;;10.50;4.57;;;26.70;97.40;;;;;;5049451;28;20049;-73
2021/06/11 09:27:04;;;;;;;7.03;4.75;;;26.60;96.20;;;;;;5051037;28;20036;-73
2021/06/11 09:29:36;;;;;;;10.43;4.97;;;25.70;97.30;;;;;;5048453;28;20063;-73
2021/06/11 09:32:16;;;;;;;10.75;4.70;;;25.80;98.20;;;;;;5051977;28;20059;-73
2021/06/11 09:34:44;;;;;;;9.95;3.90;;;25.20;99.60;;;;;;5052432;28;20087;-73
2021/06/11 09:37:25;;;;;;;7.75;4.75;;;25.60;99.60;;;;;;5052258;28;20151;-73
2021/06/11 09:39:54;;;;;;;6.10;4.07;;;25.70;99.50;;;;;;5047125;28;20029;-73
2021/06/11 09:42:24;;;;;;;9.38;4.63;;;26.70;98.90;;;;;;5053021;28;20567;-73
2021/06/11 09:44:55;;;;;;;10.55;4.13;;;27.30;98.80;;;;;;5052226;28;20044;-73
2021/06/11 09:47:43;;;;;;;7.13;4.68;;;26.70;99.10;;;;;;5049078;28;20124;-73
2021/06/11 09:50:20;;;;;;;9.60;4.43;;;26.80;99.30;;;;;;5055386;28;20112;-73
2021/06/11 09:53:10;;;;;;;7.60;4.80;;;26.30;98.90;;;;;;5050653;28;20029;-73
2021/06/11 09:55:42;;;;;;;8.52;4.45;;;26.50;99.30;;;;;;5052912;28;20529;-73
2021/06/11 09:58:16;;;;;;;11.05;5.13;;;26.30;98.90;;;;;;5049787;28;20029;-73
2021/06/11 10:00:53;;;;;;;10.85;5.35;;;25.70;99.90;;;;;;5051550;28;20040;-73
2021/06/11 10:03:29;;;;;;;10.82;5.30;;;25.60;99.90;;;;;;5046396;28;20024;-73
2021/06/11 10:06:00;;;;;;;8.40;4.85;;;25.70;99.90;;;;;;5049371;28;20052;-73
2021/06/11 10:08:26;;;;;;;6.93;4.93;;;25.50;99.90;;;;;;5049740;28;20335;-73
2021/06/11 10:10:59;;;;;;;8.05;5.13;;;26.20;99.90;;;;;;5046645;28;20037;-73
2021/06/11 10:13:26;;;;;;;7.90;5.32;;;26.40;99.90;;;;;;5051126;28;20697;-73
2021/06/11 10:15:54;;;;;;;8.13;4.57;;;26.20;99.90;;;;;;5037413;28;20044;-73
2021/06/11 10:18:20;;;;;;;6.35;5.03;;;26.20;99.90;;;;;;5047282;28;20032;-72
2021/06/11 10:20:46;;;;;;;6.63;4.88;;;26.20;99.90;;;;;;5051569;28;20045;-73
2021/06/11 10:23:23;;;;;;;10.63;5.50;;;26.40;99.90;;;;;;5055671;28;20589;-73
2021/06/11 10:25:56;;;;;;;7.65;5.10;;;26.40;99.90;;;;;;5048006;28;20420;-73
2021/06/11 10:28:25;;;;;;;8.45;5.28;;;26.40;99.90;;;;;;5052189;28;20020;-73
2021/06/11 10:31:02;;;;;;;9.00;5.40;;;26.10;99.90;;;;;;5059557;28;20033;-73
2021/06/11 10:33:44;;;;;;;6.57;4.70;;;26.70;99.90;;;;;;5059597;28;20021;-73
2021/06/11 10:36:29;;;;;;;6.97;4.95;;;27.00;99.90;;;;;;5060833;28;20877;-73
2021/06/11 10:39:15;;;;;;;8.32;5.68;;;26.30;99.90;;;;;;5059408;28;20029;-73
2021/06/11 10:41:53;;;;;;;8.60;5.05;;;26.60;99.90;;;;;;5050716;28;20044;-73
2021/06/11 10:44:50;;;;;;;7.50;5.13;;;26.50;99.90;;;;;;5054417;28;20548;-73
2021/06/11 10:47:18;;;;;;;9.30;5.10;;;27.00;99.90;;;;;;5051379;28;20507;-73
2021/06/11 10:50:00;;;;;;;9.00;5.15;;;27.10;99.90;;;;;;5051358;28;20029;-73
2021/06/11 10:52:31;;;;;;;;;;;27.40;99.80;;;;;;5054662;28;20067;-73
2021/06/11 10:55:18;;;;;;;8.80;5.38;;;27.50;98.50;;;;;;5050387;28;20020;-73
2021/06/11 10:57:52;;;;;;;8.45;4.65;;;26.80;99.30;;;;;;5040074;28;20048;-73
2021/06/11 11:00:26;;;;;;;5.40;4.07;;;27.10;99.30;;;;;;5033556;28;20055;-73
2021/06/11 11:02:58;;;;;;;9.10;4.90;;;27.20;99.10;;;;;;5048793;28;20521;-73
2021/06/11 11:05:27;;;;;;;;;;;27.40;99.00;;;;;;5056306;28;20190;-73
2021/06/11 11:07:53;;;;;;;8.57;4.68;;;27.60;99.40;;;;;;5049451;28;19912;-73
2021/06/11 11:10:43;;;;;;;7.25;4.53;;;27.50;98.90;;;;;;5055916;28;20035;-73
2021/06/11 11:13:14;;;;;;;6.80;4.90;;;27.50;98.00;;;;;;5055128;28;20474;-73
2021/06/11 11:15:42;;;;;;;10.93;4.00;;;27.40;98.10;;;;;;5051787;28;20075;-73
2021/06/11 11:18:09;;;;;;;10.60;4.18;;;27.30;98.30;;;;;;5054005;28;20372;-73
2021/06/11 11:20:37;;;;;;;7.13;4.30;;;27.50;97.00;;;;;;5055241;28;20490;-73
2021/06/11 11:23:05;;;;;;;7.78;4.03;;;27.30;96.90;;;;;;5054754;28;20024;-73
2021/06/11 11:25:35;;;;;;;5.35;3.78;;;27.50;97.50;;;;;;5049719;28;20036;-73
2021/06/11 11:28:01;;;;;;;7.95;4.25;;;27.80;97.90;;;;;;5054753;28;20544;-73
2021/06/11 11:30:29;;;;;;;9.23;4.10;;;28.00;96.90;;;;;;5053370;28;22270;-73
2021/06/11 11:33:00;;;;;;;9.13;3.97;;;28.00;96.20;;;;;;5047109;28;20033;-73
2021/06/11 11:35:28;;;;;;;8.77;4.00;;;27.90;96.80;;;;;;5050336;28;20457;-73
2021/06/11 11:37:55;;;;;;;5.90;3.40;;;28.00;96.50;;;;;;5053968;28;20043;-73
2021/06/11 11:40:24;;;;;;;9.43;4.10;;;28.10;97.00;;;;;;5051433;28;20560;-73
2021/06/11 11:42:56;;;;;;;6.40;3.60;;;28.30;96.40;;;;;;5055434;28;20388;-73
2021/06/11 11:45:26;;;;;;;8.20;3.83;;;28.40;96.30;;;;;;5047227;28;20035;-73
2021/06/11 11:47:57;;;;;;;7.70;3.95;;;28.10;95.60;;;;;;5047965;28;20082;-73
2021/06/11 11:50:26;;;;;;;10.60;3.75;;;28.40;95.80;;;;;;5055638;28;20032;-73
2021/06/11 11:52:52;;;;;;;8.77;3.63;;;28.40;95.60;;;;;;5051755;28;20044;-73
2021/06/11 11:55:18;;;;;;;5.72;3.67;;;28.40;95.30;;;;;;5058588;28;20033;-73
2021/06/11 11:57:45;;;;;;;6.03;3.80;;;28.60;95.40;;;;;;5054473;28;20040;-73
2021/06/11 12:00:12;;;;;;;6.43;3.20;;;28.80;95.10;;;;;;5052619;28;20036;-73
2021/06/11 12:02:38;;;;;;;7.75;4.03;;;28.90;94.50;;;;;;5053622;28;20483;-73
2021/06/11 12:05:06;;;;;;;5.95;3.65;;;28.80;93.80;;;;;;5053682;28;20027;-73
2021/06/11 12:07:32;;;;;;;8.07;3.90;;;28.40;93.70;;;;;;5051585;28;20036;-73
2021/06/11 12:09:59;;;;;;;6.53;3.53;;;28.80;94.90;;;;;;5039398;28;20045;-73
2021/06/11 12:12:25;;;;;;;8.52;3.40;;;29.00;93.80;;;;;;5050072;28;20355;-73
2021/06/11 12:14:50;;;;;;;5.32;3.50;;;28.80;93.40;;;;;;5057051;28;20036;-73
2021/06/11 12:17:16;;;;;;;7.60;3.85;;;29.30;93.60;;;;;;5057786;28;20028;-73
2021/06/11 12:19:42;;;;;;;6.20;3.70;;;29.10;93.60;;;;;;5052829;28;20501;-73
2021/06/11 12:22:08;;;;;;;7.68;3.30;;;29.30;93.60;;;;;;5054291;28;20036;-73
2021/06/11 12:24:33;;;;;;;8.15;3.38;;;29.30;92.90;;;;;;5057118;28;20471;-73
2021/06/11 12:26:59;;;;;;;6.88;4.03;;;29.20;91.90;;;;;;5052353;28;20116;-73
2021/06/11 12:29:24;;;;;;;5.55;3.78;;;29.40;92.60;;;;;;5054269;28;20111;-73
2021/06/11 12:31:51;;;;;;;8.00;3.38;;;29.40;92.00;;;;;;5052500;28;20091;-73
2021/06/11 12:34:18;;;;;;;6.57;3.50;;;29.30;92.00;;;;;;5043239;28;20028;-73
2021/06/11 12:36:44;;;;;;;5.88;3.63;;;29.40;92.20;;;;;;5048931;28;20079;-73
2021/06/11 12:39:12;;;;;;;6.85;3.42;;;29.30;92.00;;;;;;5055645;28;20048;-73
2021/06/11 12:41:38;;;;;;;10.20;3.42;;;29.10;91.60;;;;;;5053304;28;20036;-73
2021/06/11 12:44:15;;;;;;;5.20;3.20;;;29.00;91.40;;;;;;5053040;28;20024;-73
2021/06/11 12:46:44;;;;;;;4.90;3.03;;;29.20;91.50;;;;;;5052819;28;20041;-73
2021/06/11 12:49:11;;;;;;;6.38;3.03;;;29.10;91.50;;;;;;5049698;28;20029;-73
2021/06/11 12:51:37;;;;;;;6.60;3.67;;;29.20;91.60;;;;;;5057276;28;20111;-73